sensor_id;sensor_type;location;lat;lon;timestamp;P1;durP1;ratioP1;P2;durP2;ratioP2
25213;SDS011;13160;51.834;4.706;2022-10-16T00:02:00;6.93;;;2.50;;
25213;SDS011;13160;51.834;4.706;2022-10-16T00:04:31;7.78;;;2.30;;
25213;SDS011;13160;51.834;4.706;2022-10-16T00:07:01;7.65;;;3.08;;
25213;SDS011;13160;51.834;4.706;2022-10-16T00:09:33;6.70;;;2.60;;
25213;SDS011;13160;51.834;4.706;2022-10-16T00:12:03;5.90;;;2.20;;
25213;SDS011;13160;51.834;4.706;2022-10-16T00:14:33;7.32;;;2.35;;
25213;SDS011;13160;51.834;4.706;2022-10-16T00:17:08;8.07;;;2.63;;
25213;SDS011;13160;51.834;4.706;2022-10-16T00:19:41;5.10;;;2.55;;
25213;SDS011;13160;51.834;4.706;2022-10-16T00:22:16;4.82;;;2.25;;
25213;SDS011;13160;51.834;4.706;2022-10-16T00:24:49;5.53;;;2.40;;
25213;SDS011;13160;51.834;4.706;2022-10-16T00:27:19;7.60;;;2.70;;
25213;SDS011;13160;51.834;4.706;2022-10-16T00:29:54;8.10;;;3.08;;
25213;SDS011;13160;51.834;4.706;2022-10-16T00:32:29;7.40;;;2.72;;
25213;SDS011;13160;51.834;4.706;2022-10-16T00:35:00;4.97;;;2.25;;
25213;SDS011;13160;51.834;4.706;2022-10-16T00:37:41;4.50;;;2.25;;
25213;SDS011;13160;51.834;4.706;2022-10-16T00:40:13;6.22;;;2.30;;
25213;SDS011;13160;51.834;4.706;2022-10-16T00:42:41;5.95;;;2.45;;
25213;SDS011;13160;51.834;4.706;2022-10-16T00:45:11;8.32;;;2.60;;
25213;SDS011;13160;51.834;4.706;2022-10-16T00:47:43;6.15;;;2.50;;
25213;SDS011;13160;51.834;4.706;2022-10-16T00:50:22;5.20;;;2.67;;
25213;SDS011;13160;51.834;4.706;2022-10-16T00:52:58;6.70;;;2.90;;
25213;SDS011;13160;51.834;4.706;2022-10-16T00:55:32;5.07;;;2.90;;
25213;SDS011;13160;51.834;4.706;2022-10-16T00:58:08;6.53;;;2.75;;
25213;SDS011;13160;51.834;4.706;2022-10-16T01:00:45;7.03;;;2.75;;
25213;SDS011;13160;51.834;4.706;2022-10-16T01:03:22;6.65;;;2.53;;
25213;SDS011;13160;51.834;4.706;2022-10-16T01:06:22;5.45;;;2.95;;
25213;SDS011;13160;51.834;4.706;2022-10-16T01:09:08;8.48;;;3.08;;
25213;SDS011;13160;51.834;4.706;2022-10-16T01:11:55;7.28;;;2.92;;
25213;SDS011;13160;51.834;4.706;2022-10-16T01:14:53;5.60;;;2.83;;
25213;SDS011;13160;51.834;4.706;2022-10-16T01:17:44;6.45;;;2.85;;
25213;SDS011;13160;51.834;4.706;2022-10-16T01:20:24;6.18;;;3.00;;
25213;SDS011;13160;51.834;4.706;2022-10-16T01:26:07;6.80;;;3.00;;
25213;SDS011;13160;51.834;4.706;2022-10-16T01:29:00;9.15;;;2.88;;
25213;SDS011;13160;51.834;4.706;2022-10-16T01:31:39;7.18;;;3.28;;
25213;SDS011;13160;51.834;4.706;2022-10-16T01:34:17;10.18;;;3.60;;
25213;SDS011;13160;51.834;4.706;2022-10-16T01:36:56;7.07;;;2.85;;
25213;SDS011;13160;51.834;4.706;2022-10-16T01:39:36;6.40;;;2.70;;
25213;SDS011;13160;51.834;4.706;2022-10-16T01:42:12;6.88;;;3.08;;
25213;SDS011;13160;51.834;4.706;2022-10-16T01:44:48;6.35;;;3.22;;
25213;SDS011;13160;51.834;4.706;2022-10-16T01:47:32;7.00;;;3.22;;
25213;SDS011;13160;51.834;4.706;2022-10-16T01:50:16;6.00;;;3.40;;
25213;SDS011;13160;51.834;4.706;2022-10-16T01:52:53;6.57;;;3.50;;
25213;SDS011;13160;51.834;4.706;2022-10-16T01:55:37;6.63;;;3.17;;
25213;SDS011;13160;51.834;4.706;2022-10-16T01:58:18;5.70;;;2.95;;
25213;SDS011;13160;51.834;4.706;2022-10-16T02:00:56;7.40;;;2.83;;
25213;SDS011;13160;51.834;4.706;2022-10-16T02:03:34;5.57;;;3.03;;
25213;SDS011;13160;51.834;4.706;2022-10-16T02:06:12;6.32;;;3.03;;
25213;SDS011;13160;51.834;4.706;2022-10-16T02:08:53;5.60;;;3.10;;
25213;SDS011;13160;51.834;4.706;2022-10-16T02:11:30;6.70;;;3.50;;
25213;SDS011;13160;51.834;4.706;2022-10-16T02:14:08;7.13;;;3.30;;
25213;SDS011;13160;51.834;4.706;2022-10-16T02:16:42;5.57;;;3.13;;
25213;SDS011;13160;51.834;4.706;2022-10-16T02:19:19;6.88;;;3.15;;
25213;SDS011;13160;51.834;4.706;2022-10-16T02:22:15;5.13;;;3.10;;
25213;SDS011;13160;51.834;4.706;2022-10-16T02:24:51;8.07;;;3.10;;
25213;SDS011;13160;51.834;4.706;2022-10-16T02:27:33;5.13;;;3.15;;
25213;SDS011;13160;51.834;4.706;2022-10-16T02:30:13;4.95;;;2.80;;
25213;SDS011;13160;51.834;4.706;2022-10-16T02:33:01;4.60;;;2.80;;
25213;SDS011;13160;51.834;4.706;2022-10-16T02:35:46;6.40;;;3.10;;
25213;SDS011;13160;51.834;4.706;2022-10-16T02:38:21;5.22;;;2.85;;
25213;SDS011;13160;51.834;4.706;2022-10-16T02:40:54;6.03;;;3.03;;
25213;SDS011;13160;51.834;4.706;2022-10-16T02:43:35;6.88;;;3.28;;
25213;SDS011;13160;51.834;4.706;2022-10-16T02:46:19;5.00;;;2.60;;
25213;SDS011;13160;51.834;4.706;2022-10-16T02:48:52;4.65;;;2.70;;
25213;SDS011;13160;51.834;4.706;2022-10-16T02:51:26;6.32;;;2.67;;
25213;SDS011;13160;51.834;4.706;2022-10-16T02:54:03;5.35;;;3.00;;
25213;SDS011;13160;51.834;4.706;2022-10-16T02:56:34;7.78;;;3.13;;
25213;SDS011;13160;51.834;4.706;2022-10-16T02:59:07;8.73;;;2.75;;
25213;SDS011;13160;51.834;4.706;2022-10-16T03:01:36;4.38;;;2.45;;
25213;SDS011;13160;51.834;4.706;2022-10-16T03:04:13;4.38;;;2.50;;
25213;SDS011;13160;51.834;4.706;2022-10-16T03:06:56;7.25;;;2.22;;
25213;SDS011;13160;51.834;4.706;2022-10-16T03:09:32;5.53;;;2.30;;
25213;SDS011;13160;51.834;4.706;2022-10-16T03:12:03;6.07;;;2.25;;
25213;SDS011;13160;51.834;4.706;2022-10-16T03:17:47;4.90;;;2.30;;
25213;SDS011;13160;51.834;4.706;2022-10-16T03:20:32;5.05;;;2.20;;
25213;SDS011;13160;51.834;4.706;2022-10-16T03:23:04;7.85;;;2.30;;
25213;SDS011;13160;51.834;4.706;2022-10-16T03:25:43;4.93;;;2.28;;
25213;SDS011;13160;51.834;4.706;2022-10-16T03:28:13;5.82;;;2.38;;
25213;SDS011;13160;51.834;4.706;2022-10-16T03:30:48;4.18;;;2.03;;
25213;SDS011;13160;51.834;4.706;2022-10-16T03:33:25;7.30;;;2.42;;
25213;SDS011;13160;51.834;4.706;2022-10-16T03:36:02;4.93;;;2.15;;
25213;SDS011;13160;51.834;4.706;2022-10-16T03:38:34;6.55;;;2.10;;
25213;SDS011;13160;51.834;4.706;2022-10-16T03:41:10;4.85;;;2.03;;
25213;SDS011;13160;51.834;4.706;2022-10-16T03:43:48;5.43;;;2.30;;
25213;SDS011;13160;51.834;4.706;2022-10-16T03:46:30;6.28;;;1.92;;
25213;SDS011;13160;51.834;4.706;2022-10-16T03:49:05;5.63;;;2.13;;
25213;SDS011;13160;51.834;4.706;2022-10-16T03:51:56;8.43;;;2.25;;
25213;SDS011;13160;51.834;4.706;2022-10-16T03:54:51;5.93;;;2.30;;
25213;SDS011;13160;51.834;4.706;2022-10-16T03:57:29;6.18;;;2.03;;
25213;SDS011;13160;51.834;4.706;2022-10-16T04:00:02;5.55;;;2.33;;
25213;SDS011;13160;51.834;4.706;2022-10-16T04:02:35;5.47;;;2.22;;
25213;SDS011;13160;51.834;4.706;2022-10-16T04:05:09;6.47;;;2.10;;
25213;SDS011;13160;51.834;4.706;2022-10-16T04:07:44;6.45;;;2.13;;
25213;SDS011;13160;51.834;4.706;2022-10-16T04:10:14;4.45;;;2.03;;
25213;SDS011;13160;51.834;4.706;2022-10-16T04:12:49;5.28;;;2.22;;
25213;SDS011;13160;51.834;4.706;2022-10-16T04:15:21;4.63;;;2.45;;
25213;SDS011;13160;51.834;4.706;2022-10-16T04:17:52;6.00;;;2.42;;
25213;SDS011;13160;51.834;4.706;2022-10-16T04:20:21;7.75;;;2.33;;
25213;SDS011;13160;51.834;4.706;2022-10-16T04:22:56;6.43;;;2.28;;
25213;SDS011;13160;51.834;4.706;2022-10-16T04:25:31;4.97;;;2.00;;
25213;SDS011;13160;51.834;4.706;2022-10-16T04:28:02;5.88;;;2.40;;
25213;SDS011;13160;51.834;4.706;2022-10-16T04:30:37;6.65;;;2.38;;
25213;SDS011;13160;51.834;4.706;2022-10-16T04:33:08;6.93;;;2.53;;
25213;SDS011;13160;51.834;4.706;2022-10-16T04:35:39;7.82;;;2.60;;
25213;SDS011;13160;51.834;4.706;2022-10-16T04:38:27;4.25;;;2.00;;
25213;SDS011;13160;51.834;4.706;2022-10-16T04:41:06;7.07;;;2.58;;
25213;SDS011;13160;51.834;4.706;2022-10-16T04:43:39;4.68;;;2.33;;
25213;SDS011;13160;51.834;4.706;2022-10-16T04:46:12;6.53;;;2.85;;
25213;SDS011;13160;51.834;4.706;2022-10-16T04:48:43;6.95;;;2.80;;
25213;SDS011;13160;51.834;4.706;2022-10-16T04:51:14;5.68;;;2.60;;
25213;SDS011;13160;51.834;4.706;2022-10-16T04:53:53;6.95;;;2.70;;
25213;SDS011;13160;51.834;4.706;2022-10-16T04:56:24;6.53;;;2.92;;
25213;SDS011;13160;51.834;4.706;2022-10-16T04:58:58;5.80;;;2.70;;
25213;SDS011;13160;51.834;4.706;2022-10-16T05:01:35;8.52;;;3.20;;
25213;SDS011;13160;51.834;4.706;2022-10-16T05:04:12;5.13;;;2.60;;
25213;SDS011;13160;51.834;4.706;2022-10-16T05:06:48;8.27;;;2.70;;
25213;SDS011;13160;51.834;4.706;2022-10-16T05:09:21;8.98;;;3.20;;
25213;SDS011;13160;51.834;4.706;2022-10-16T05:12:01;4.72;;;2.70;;
25213;SDS011;13160;51.834;4.706;2022-10-16T05:14:38;6.30;;;3.08;;
25213;SDS011;13160;51.834;4.706;2022-10-16T05:17:13;5.85;;;2.72;;
25213;SDS011;13160;51.834;4.706;2022-10-16T05:19:56;6.10;;;2.95;;
25213;SDS011;13160;51.834;4.706;2022-10-16T05:22:30;7.32;;;2.95;;
25213;SDS011;13160;51.834;4.706;2022-10-16T05:25:06;5.95;;;2.53;;
25213;SDS011;13160;51.834;4.706;2022-10-16T05:27:36;8.25;;;2.50;;
25213;SDS011;13160;51.834;4.706;2022-10-16T05:30:14;6.75;;;2.55;;
25213;SDS011;13160;51.834;4.706;2022-10-16T05:32:48;5.57;;;2.45;;
25213;SDS011;13160;51.834;4.706;2022-10-16T05:35:21;8.50;;;2.70;;
25213;SDS011;13160;51.834;4.706;2022-10-16T05:37:55;6.47;;;2.85;;
25213;SDS011;13160;51.834;4.706;2022-10-16T05:40:28;8.23;;;2.80;;
25213;SDS011;13160;51.834;4.706;2022-10-16T05:43:01;10.15;;;3.58;;
25213;SDS011;13160;51.834;4.706;2022-10-16T05:45:30;6.22;;;2.72;;
25213;SDS011;13160;51.834;4.706;2022-10-16T05:48:01;6.85;;;2.70;;
25213;SDS011;13160;51.834;4.706;2022-10-16T05:50:30;8.05;;;2.78;;
25213;SDS011;13160;51.834;4.706;2022-10-16T05:52:59;5.10;;;2.58;;
25213;SDS011;13160;51.834;4.706;2022-10-16T05:55:55;10.27;;;3.10;;
25213;SDS011;13160;51.834;4.706;2022-10-16T05:58:29;7.15;;;2.40;;
25213;SDS011;13160;51.834;4.706;2022-10-16T06:01:04;5.57;;;2.30;;
25213;SDS011;13160;51.834;4.706;2022-10-16T06:03:37;5.32;;;2.33;;
25213;SDS011;13160;51.834;4.706;2022-10-16T06:06:10;5.25;;;2.15;;
25213;SDS011;13160;51.834;4.706;2022-10-16T06:08:47;4.53;;;2.30;;
25213;SDS011;13160;51.834;4.706;2022-10-16T06:11:28;6.78;;;2.65;;
25213;SDS011;13160;51.834;4.706;2022-10-16T06:14:01;5.03;;;2.30;;
25213;SDS011;13160;51.834;4.706;2022-10-16T06:16:34;7.00;;;2.67;;
25213;SDS011;13160;51.834;4.706;2022-10-16T06:19:08;8.18;;;2.60;;
25213;SDS011;13160;51.834;4.706;2022-10-16T06:21:59;8.50;;;2.50;;
25213;SDS011;13160;51.834;4.706;2022-10-16T06:24:44;7.47;;;2.70;;
25213;SDS011;13160;51.834;4.706;2022-10-16T06:27:20;6.13;;;2.58;;
25213;SDS011;13160;51.834;4.706;2022-10-16T06:29:55;6.05;;;2.58;;
25213;SDS011;13160;51.834;4.706;2022-10-16T06:32:39;10.60;;;3.25;;
25213;SDS011;13160;51.834;4.706;2022-10-16T06:35:13;8.95;;;2.58;;
25213;SDS011;13160;51.834;4.706;2022-10-16T06:37:43;7.00;;;2.78;;
25213;SDS011;13160;51.834;4.706;2022-10-16T06:40:13;7.57;;;3.00;;
25213;SDS011;13160;51.834;4.706;2022-10-16T06:42:48;8.48;;;3.13;;
25213;SDS011;13160;51.834;4.706;2022-10-16T06:45:29;7.78;;;3.42;;
25213;SDS011;13160;51.834;4.706;2022-10-16T06:47:57;5.75;;;2.72;;
25213;SDS011;13160;51.834;4.706;2022-10-16T06:50:25;9.88;;;3.10;;
25213;SDS011;13160;51.834;4.706;2022-10-16T06:52:53;8.13;;;3.28;;
25213;SDS011;13160;51.834;4.706;2022-10-16T06:55:22;7.40;;;3.28;;
25213;SDS011;13160;51.834;4.706;2022-10-16T06:57:52;8.48;;;3.10;;
25213;SDS011;13160;51.834;4.706;2022-10-16T07:00:20;7.95;;;3.22;;
25213;SDS011;13160;51.834;4.706;2022-10-16T07:02:53;6.35;;;3.00;;
25213;SDS011;13160;51.834;4.706;2022-10-16T07:05:21;7.88;;;3.17;;
25213;SDS011;13160;51.834;4.706;2022-10-16T07:07:49;6.15;;;2.67;;
25213;SDS011;13160;51.834;4.706;2022-10-16T07:10:17;6.72;;;2.92;;
25213;SDS011;13160;51.834;4.706;2022-10-16T07:12:46;7.68;;;3.10;;
25213;SDS011;13160;51.834;4.706;2022-10-16T07:15:15;7.28;;;2.85;;
25213;SDS011;13160;51.834;4.706;2022-10-16T07:17:43;8.20;;;2.80;;
25213;SDS011;13160;51.834;4.706;2022-10-16T07:20:12;7.68;;;3.10;;
25213;SDS011;13160;51.834;4.706;2022-10-16T07:22:40;7.50;;;2.80;;
25213;SDS011;13160;51.834;4.706;2022-10-16T07:25:08;8.98;;;2.67;;
25213;SDS011;13160;51.834;4.706;2022-10-16T07:27:37;8.90;;;2.92;;
25213;SDS011;13160;51.834;4.706;2022-10-16T07:30:06;9.93;;;2.95;;
25213;SDS011;13160;51.834;4.706;2022-10-16T07:32:36;6.75;;;2.63;;
25213;SDS011;13160;51.834;4.706;2022-10-16T07:35:05;5.88;;;2.97;;
25213;SDS011;13160;51.834;4.706;2022-10-16T07:37:34;6.50;;;2.92;;
25213;SDS011;13160;51.834;4.706;2022-10-16T07:40:06;7.18;;;2.88;;
25213;SDS011;13160;51.834;4.706;2022-10-16T07:42:36;12.93;;;3.45;;
25213;SDS011;13160;51.834;4.706;2022-10-16T07:45:04;6.25;;;3.28;;
25213;SDS011;13160;51.834;4.706;2022-10-16T07:47:34;9.40;;;3.10;;
25213;SDS011;13160;51.834;4.706;2022-10-16T07:50:04;8.65;;;2.67;;
25213;SDS011;13160;51.834;4.706;2022-10-16T07:52:32;7.85;;;2.83;;
25213;SDS011;13160;51.834;4.706;2022-10-16T07:55:02;9.98;;;3.15;;
25213;SDS011;13160;51.834;4.706;2022-10-16T07:57:31;8.90;;;2.70;;
25213;SDS011;13160;51.834;4.706;2022-10-16T07:59:59;7.68;;;2.60;;
25213;SDS011;13160;51.834;4.706;2022-10-16T08:02:27;7.80;;;2.92;;
25213;SDS011;13160;51.834;4.706;2022-10-16T08:04:56;6.65;;;2.85;;
25213;SDS011;13160;51.834;4.706;2022-10-16T08:07:25;8.45;;;3.00;;
25213;SDS011;13160;51.834;4.706;2022-10-16T08:09:54;7.93;;;2.60;;
25213;SDS011;13160;51.834;4.706;2022-10-16T08:12:24;11.02;;;3.13;;
25213;SDS011;13160;51.834;4.706;2022-10-16T08:14:54;12.13;;;2.92;;
25213;SDS011;13160;51.834;4.706;2022-10-16T08:17:31;6.78;;;2.80;;
25213;SDS011;13160;51.834;4.706;2022-10-16T08:20:01;8.10;;;2.70;;
25213;SDS011;13160;51.834;4.706;2022-10-16T08:22:31;6.88;;;2.50;;
25213;SDS011;13160;51.834;4.706;2022-10-16T08:25:00;10.00;;;2.20;;
25213;SDS011;13160;51.834;4.706;2022-10-16T08:27:31;9.55;;;2.42;;
25213;SDS011;13160;51.834;4.706;2022-10-16T08:29:59;11.82;;;3.28;;
25213;SDS011;13160;51.834;4.706;2022-10-16T08:32:29;9.57;;;2.53;;
25213;SDS011;13160;51.834;4.706;2022-10-16T08:34:58;10.20;;;2.67;;
25213;SDS011;13160;51.834;4.706;2022-10-16T08:37:29;10.85;;;2.97;;
25213;SDS011;13160;51.834;4.706;2022-10-16T08:39:59;9.65;;;2.60;;
25213;SDS011;13160;51.834;4.706;2022-10-16T08:42:30;12.65;;;3.22;;
25213;SDS011;13160;51.834;4.706;2022-10-16T08:45:20;9.55;;;2.90;;
25213;SDS011;13160;51.834;4.706;2022-10-16T08:48:04;9.23;;;2.50;;
25213;SDS011;13160;51.834;4.706;2022-10-16T08:50:45;7.88;;;2.50;;
25213;SDS011;13160;51.834;4.706;2022-10-16T08:53:17;10.52;;;2.72;;
25213;SDS011;13160;51.834;4.706;2022-10-16T08:55:52;11.00;;;3.33;;
25213;SDS011;13160;51.834;4.706;2022-10-16T08:58:22;13.57;;;2.70;;
25213;SDS011;13160;51.834;4.706;2022-10-16T09:00:56;9.45;;;2.25;;
25213;SDS011;13160;51.834;4.706;2022-10-16T09:03:31;10.60;;;2.58;;
25213;SDS011;13160;51.834;4.706;2022-10-16T09:06:27;13.18;;;4.13;;
25213;SDS011;13160;51.834;4.706;2022-10-16T09:09:19;9.25;;;3.50;;
25213;SDS011;13160;51.834;4.706;2022-10-16T09:12:19;17.70;;;2.95;;
25213;SDS011;13160;51.834;4.706;2022-10-16T09:15:02;9.73;;;3.03;;
25213;SDS011;13160;51.834;4.706;2022-10-16T09:17:48;9.23;;;2.50;;
25213;SDS011;13160;51.834;4.706;2022-10-16T09:20:29;10.90;;;2.65;;
25213;SDS011;13160;51.834;4.706;2022-10-16T09:23:13;9.48;;;2.67;;
25213;SDS011;13160;51.834;4.706;2022-10-16T09:25:53;10.52;;;2.83;;
25213;SDS011;13160;51.834;4.706;2022-10-16T09:28:29;9.20;;;2.65;;
25213;SDS011;13160;51.834;4.706;2022-10-16T09:33:58;12.70;;;3.28;;
25213;SDS011;13160;51.834;4.706;2022-10-16T09:36:47;10.90;;;2.58;;
25213;SDS011;13160;51.834;4.706;2022-10-16T09:39:44;9.32;;;2.58;;
25213;SDS011;13160;51.834;4.706;2022-10-16T09:42:31;14.23;;;2.90;;
25213;SDS011;13160;51.834;4.706;2022-10-16T09:45:29;11.70;;;2.55;;
25213;SDS011;13160;51.834;4.706;2022-10-16T09:48:01;10.85;;;2.50;;
25213;SDS011;13160;51.834;4.706;2022-10-16T09:50:39;15.52;;;3.45;;
25213;SDS011;13160;51.834;4.706;2022-10-16T09:53:10;13.18;;;3.42;;
25213;SDS011;13160;51.834;4.706;2022-10-16T09:55:49;12.55;;;2.30;;
25213;SDS011;13160;51.834;4.706;2022-10-16T09:58:33;7.10;;;2.15;;
25213;SDS011;13160;51.834;4.706;2022-10-16T10:01:14;10.52;;;2.28;;
25213;SDS011;13160;51.834;4.706;2022-10-16T10:04:57;13.80;;;2.88;;
25213;SDS011;13160;51.834;4.706;2022-10-16T10:08:20;10.60;;;2.85;;
25213;SDS011;13160;51.834;4.706;2022-10-16T10:12:15;13.20;;;2.92;;
25213;SDS011;13160;51.834;4.706;2022-10-16T10:19:44;11.60;;;2.58;;
25213;SDS011;13160;51.834;4.706;2022-10-16T10:22:22;13.20;;;2.65;;
25213;SDS011;13160;51.834;4.706;2022-10-16T10:25:14;14.68;;;2.88;;
25213;SDS011;13160;51.834;4.706;2022-10-16T10:28:21;13.70;;;2.75;;
25213;SDS011;13160;51.834;4.706;2022-10-16T10:31:09;11.77;;;2.45;;
25213;SDS011;13160;51.834;4.706;2022-10-16T10:33:47;12.77;;;2.70;;
25213;SDS011;13160;51.834;4.706;2022-10-16T10:36:27;15.98;;;3.42;;
25213;SDS011;13160;51.834;4.706;2022-10-16T10:39:04;13.02;;;2.80;;
25213;SDS011;13160;51.834;4.706;2022-10-16T10:42:02;15.65;;;3.05;;
25213;SDS011;13160;51.834;4.706;2022-10-16T10:44:48;10.23;;;2.78;;
25213;SDS011;13160;51.834;4.706;2022-10-16T10:47:44;11.85;;;2.78;;
25213;SDS011;13160;51.834;4.706;2022-10-16T10:50:33;14.07;;;2.50;;
25213;SDS011;13160;51.834;4.706;2022-10-16T10:53:11;10.07;;;2.67;;
25213;SDS011;13160;51.834;4.706;2022-10-16T10:56:18;16.20;;;3.20;;
25213;SDS011;13160;51.834;4.706;2022-10-16T10:59:09;9.93;;;2.60;;
25213;SDS011;13160;51.834;4.706;2022-10-16T11:02:03;18.90;;;2.88;;
25213;SDS011;13160;51.834;4.706;2022-10-16T11:04:52;12.05;;;2.42;;
25213;SDS011;13160;51.834;4.706;2022-10-16T11:07:54;16.85;;;2.95;;
25213;SDS011;13160;51.834;4.706;2022-10-16T11:10:41;11.55;;;2.75;;
25213;SDS011;13160;51.834;4.706;2022-10-16T11:21:16;15.82;;;2.75;;
25213;SDS011;13160;51.834;4.706;2022-10-16T11:23:57;12.20;;;2.72;;
25213;SDS011;13160;51.834;4.706;2022-10-16T11:26:34;13.27;;;2.72;;
25213;SDS011;13160;51.834;4.706;2022-10-16T11:29:08;15.82;;;3.03;;
25213;SDS011;13160;51.834;4.706;2022-10-16T11:31:45;13.68;;;2.70;;
25213;SDS011;13160;51.834;4.706;2022-10-16T11:34:18;13.38;;;2.78;;
25213;SDS011;13160;51.834;4.706;2022-10-16T11:36:53;15.13;;;2.50;;
25213;SDS011;13160;51.834;4.706;2022-10-16T11:39:27;9.23;;;1.98;;
25213;SDS011;13160;51.834;4.706;2022-10-16T11:42:01;10.40;;;2.90;;
25213;SDS011;13160;51.834;4.706;2022-10-16T11:44:40;17.98;;;3.75;;
25213;SDS011;13160;51.834;4.706;2022-10-16T11:50:26;12.55;;;2.95;;
25213;SDS011;13160;51.834;4.706;2022-10-16T11:53:03;10.73;;;2.30;;
25213;SDS011;13160;51.834;4.706;2022-10-16T11:55:43;11.75;;;2.75;;
25213;SDS011;13160;51.834;4.706;2022-10-16T11:58:19;9.45;;;2.55;;
25213;SDS011;13160;51.834;4.706;2022-10-16T12:01:10;9.88;;;2.05;;
25213;SDS011;13160;51.834;4.706;2022-10-16T12:06:28;12.38;;;2.28;;
25213;SDS011;13160;51.834;4.706;2022-10-16T12:09:03;11.43;;;2.58;;
25213;SDS011;13160;51.834;4.706;2022-10-16T12:11:35;12.60;;;2.38;;
25213;SDS011;13160;51.834;4.706;2022-10-16T12:14:21;13.45;;;2.55;;
25213;SDS011;13160;51.834;4.706;2022-10-16T12:17:26;11.63;;;2.13;;
25213;SDS011;13160;51.834;4.706;2022-10-16T12:20:18;13.20;;;2.60;;
25213;SDS011;13160;51.834;4.706;2022-10-16T12:22:53;13.77;;;2.72;;
25213;SDS011;13160;51.834;4.706;2022-10-16T12:25:34;12.05;;;3.10;;
25213;SDS011;13160;51.834;4.706;2022-10-16T12:28:19;10.57;;;2.47;;
25213;SDS011;13160;51.834;4.706;2022-10-16T12:30:56;14.10;;;2.75;;
25213;SDS011;13160;51.834;4.706;2022-10-16T12:33:29;12.80;;;2.38;;
25213;SDS011;13160;51.834;4.706;2022-10-16T12:36:26;8.90;;;2.20;;
25213;SDS011;13160;51.834;4.706;2022-10-16T12:39:00;12.50;;;2.70;;
25213;SDS011;13160;51.834;4.706;2022-10-16T12:41:30;12.95;;;2.67;;
25213;SDS011;13160;51.834;4.706;2022-10-16T12:44:02;13.82;;;2.50;;
25213;SDS011;13160;51.834;4.706;2022-10-16T12:46:37;14.18;;;2.67;;
25213;SDS011;13160;51.834;4.706;2022-10-16T12:49:19;9.40;;;2.45;;
25213;SDS011;13160;51.834;4.706;2022-10-16T12:51:57;9.32;;;2.90;;
25213;SDS011;13160;51.834;4.706;2022-10-16T12:54:27;12.75;;;2.83;;
25213;SDS011;13160;51.834;4.706;2022-10-16T12:57:09;14.90;;;3.03;;
25213;SDS011;13160;51.834;4.706;2022-10-16T13:00:04;13.65;;;2.85;;
25213;SDS011;13160;51.834;4.706;2022-10-16T13:06:20;15.25;;;2.60;;
25213;SDS011;13160;51.834;4.706;2022-10-16T13:09:04;10.68;;;2.70;;
25213;SDS011;13160;51.834;4.706;2022-10-16T13:12:01;14.95;;;2.78;;
25213;SDS011;13160;51.834;4.706;2022-10-16T13:15:04;15.90;;;2.85;;
25213;SDS011;13160;51.834;4.706;2022-10-16T13:17:52;11.48;;;2.33;;
25213;SDS011;13160;51.834;4.706;2022-10-16T13:20:31;13.32;;;2.70;;
25213;SDS011;13160;51.834;4.706;2022-10-16T13:23:06;11.77;;;2.42;;
25213;SDS011;13160;51.834;4.706;2022-10-16T13:25:50;12.73;;;2.70;;
25213;SDS011;13160;51.834;4.706;2022-10-16T13:28:33;11.32;;;2.45;;
25213;SDS011;13160;51.834;4.706;2022-10-16T13:31:04;14.65;;;2.67;;
25213;SDS011;13160;51.834;4.706;2022-10-16T13:33:33;10.60;;;2.60;;
25213;SDS011;13160;51.834;4.706;2022-10-16T13:36:06;8.98;;;2.20;;
25213;SDS011;13160;51.834;4.706;2022-10-16T13:38:47;13.70;;;2.92;;
25213;SDS011;13160;51.834;4.706;2022-10-16T13:41:27;15.43;;;3.13;;
25213;SDS011;13160;51.834;4.706;2022-10-16T13:43:55;10.10;;;2.67;;
25213;SDS011;13160;51.834;4.706;2022-10-16T13:46:25;10.77;;;2.53;;
25213;SDS011;13160;51.834;4.706;2022-10-16T13:51:41;13.55;;;2.92;;
25213;SDS011;13160;51.834;4.706;2022-10-16T13:54:21;9.40;;;2.50;;
25213;SDS011;13160;51.834;4.706;2022-10-16T13:56:50;13.90;;;3.00;;
25213;SDS011;13160;51.834;4.706;2022-10-16T13:59:34;13.68;;;2.80;;
25213;SDS011;13160;51.834;4.706;2022-10-16T14:02:08;11.00;;;2.15;;
25213;SDS011;13160;51.834;4.706;2022-10-16T14:04:47;14.07;;;2.58;;
25213;SDS011;13160;51.834;4.706;2022-10-16T14:07:28;11.10;;;2.10;;
25213;SDS011;13160;51.834;4.706;2022-10-16T14:10:00;12.38;;;2.55;;
25213;SDS011;13160;51.834;4.706;2022-10-16T14:12:33;13.80;;;2.70;;
25213;SDS011;13160;51.834;4.706;2022-10-16T14:15:05;18.75;;;3.13;;
25213;SDS011;13160;51.834;4.706;2022-10-16T14:18:13;9.77;;;2.45;;
25213;SDS011;13160;51.834;4.706;2022-10-16T14:20:48;10.60;;;2.65;;
25213;SDS011;13160;51.834;4.706;2022-10-16T14:23:45;11.77;;;2.60;;
25213;SDS011;13160;51.834;4.706;2022-10-16T14:26:18;18.25;;;4.63;;
25213;SDS011;13160;51.834;4.706;2022-10-16T14:29:02;13.23;;;3.53;;
25213;SDS011;13160;51.834;4.706;2022-10-16T14:31:54;13.38;;;2.75;;
25213;SDS011;13160;51.834;4.706;2022-10-16T14:34:25;13.27;;;2.83;;
25213;SDS011;13160;51.834;4.706;2022-10-16T14:36:59;15.07;;;3.00;;
25213;SDS011;13160;51.834;4.706;2022-10-16T14:39:38;14.90;;;2.95;;
25213;SDS011;13160;51.834;4.706;2022-10-16T14:42:11;15.38;;;2.97;;
25213;SDS011;13160;51.834;4.706;2022-10-16T14:44:49;10.77;;;3.03;;
25213;SDS011;13160;51.834;4.706;2022-10-16T14:47:23;16.15;;;3.00;;
25213;SDS011;13160;51.834;4.706;2022-10-16T14:49:56;14.27;;;3.45;;
25213;SDS011;13160;51.834;4.706;2022-10-16T14:52:36;13.07;;;3.90;;
25213;SDS011;13160;51.834;4.706;2022-10-16T14:55:23;16.77;;;3.13;;
25213;SDS011;13160;51.834;4.706;2022-10-16T14:57:53;16.95;;;3.30;;
25213;SDS011;13160;51.834;4.706;2022-10-16T15:00:26;13.25;;;2.80;;
25213;SDS011;13160;51.834;4.706;2022-10-16T15:03:03;20.60;;;3.42;;
25213;SDS011;13160;51.834;4.706;2022-10-16T15:08:54;13.02;;;3.97;;
25213;SDS011;13160;51.834;4.706;2022-10-16T15:11:27;12.60;;;3.92;;
25213;SDS011;13160;51.834;4.706;2022-10-16T15:13:55;13.95;;;3.58;;
25213;SDS011;13160;51.834;4.706;2022-10-16T15:16:24;18.13;;;3.70;;
25213;SDS011;13160;51.834;4.706;2022-10-16T15:18:57;13.88;;;3.13;;
25213;SDS011;13160;51.834;4.706;2022-10-16T15:21:27;12.85;;;3.05;;
25213;SDS011;13160;51.834;4.706;2022-10-16T15:23:59;19.45;;;3.47;;
25213;SDS011;13160;51.834;4.706;2022-10-16T15:26:32;14.35;;;4.18;;
25213;SDS011;13160;51.834;4.706;2022-10-16T15:29:01;13.57;;;3.60;;
25213;SDS011;13160;51.834;4.706;2022-10-16T15:31:29;12.77;;;3.88;;
25213;SDS011;13160;51.834;4.706;2022-10-16T15:34:13;15.38;;;4.63;;
25213;SDS011;13160;51.834;4.706;2022-10-16T15:36:46;13.20;;;3.13;;
25213;SDS011;13160;51.834;4.706;2022-10-16T15:39:15;15.25;;;3.40;;
25213;SDS011;13160;51.834;4.706;2022-10-16T15:41:48;19.08;;;3.88;;
25213;SDS011;13160;51.834;4.706;2022-10-16T15:44:19;11.23;;;2.78;;
25213;SDS011;13160;51.834;4.706;2022-10-16T15:47:00;20.25;;;3.03;;
25213;SDS011;13160;51.834;4.706;2022-10-16T15:49:28;12.70;;;3.30;;
25213;SDS011;13160;51.834;4.706;2022-10-16T15:51:56;11.43;;;3.00;;
25213;SDS011;13160;51.834;4.706;2022-10-16T15:54:25;14.45;;;3.17;;
25213;SDS011;13160;51.834;4.706;2022-10-16T15:56:54;14.85;;;4.10;;
25213;SDS011;13160;51.834;4.706;2022-10-16T15:59:23;15.85;;;4.28;;
25213;SDS011;13160;51.834;4.706;2022-10-16T16:01:51;19.35;;;4.55;;
25213;SDS011;13160;51.834;4.706;2022-10-16T16:04:19;18.83;;;4.75;;
25213;SDS011;13160;51.834;4.706;2022-10-16T16:07:07;16.48;;;4.38;;
25213;SDS011;13160;51.834;4.706;2022-10-16T16:09:36;12.35;;;3.97;;
25213;SDS011;13160;51.834;4.706;2022-10-16T16:12:05;13.88;;;3.53;;
25213;SDS011;13160;51.834;4.706;2022-10-16T16:14:35;19.33;;;4.72;;
25213;SDS011;13160;51.834;4.706;2022-10-16T18:57:44;15.52;;;5.70;;
25213;SDS011;13160;51.834;4.706;2022-10-16T19:01:09;16.23;;;6.50;;
25213;SDS011;13160;51.834;4.706;2022-10-16T19:21:41;14.35;;;5.60;;